createdAt,value
2023-01-22T00:01:15.886Z,15.73
2023-01-22T00:03:46.575Z,16.23
2023-01-22T00:06:15.180Z,15.70
2023-01-22T00:08:42.917Z,16.07
2023-01-22T00:11:10.765Z,16.47
2023-01-22T00:13:38.292Z,15.13
2023-01-22T00:16:07.302Z,22.00
2023-01-22T00:18:35.857Z,19.60
2023-01-22T00:21:04.109Z,21.67
2023-01-22T00:23:33.169Z,19.20
2023-01-22T00:26:04.414Z,20.13
2023-01-22T00:28:32.032Z,23.40
2023-01-22T00:31:02.957Z,23.30
2023-01-22T00:33:31.269Z,18.33
2023-01-22T00:36:04.055Z,18.50
2023-01-22T00:38:32.282Z,18.77
2023-01-22T00:41:03.944Z,17.03
2023-01-22T00:43:31.450Z,16.27
2023-01-22T00:46:01.797Z,17.40
2023-01-22T00:48:29.885Z,16.93
2023-01-22T00:50:57.821Z,16.30
2023-01-22T00:53:26.173Z,19.37
2023-01-22T00:55:58.328Z,18.30
2023-01-22T00:58:26.034Z,19.27
2023-01-22T01:00:53.968Z,14.63
2023-01-22T01:03:27.571Z,17.83
2023-01-22T01:05:56.368Z,25.47
2023-01-22T01:08:24.419Z,17.63
2023-01-22T01:10:56.713Z,17.17
2023-01-22T01:13:24.835Z,17.27
2023-01-22T01:15:59.470Z,18.13
2023-01-22T01:18:26.994Z,19.23
2023-01-22T01:20:56.080Z,19.33
2023-01-22T01:23:24.243Z,26.40
2023-01-22T01:25:52.050Z,21.03
2023-01-22T01:28:20.166Z,18.87
2023-01-22T01:30:47.779Z,16.40
2023-01-22T01:33:15.757Z,16.83
2023-01-22T01:35:43.821Z,15.47
2023-01-22T01:38:15.125Z,16.03
2023-01-22T01:40:43.921Z,17.00
2023-01-22T01:43:16.575Z,15.77
2023-01-22T01:45:44.358Z,17.87
2023-01-22T01:48:13.883Z,15.07
2023-01-22T01:50:41.551Z,13.13
2023-01-22T01:53:09.655Z,15.30
2023-01-22T01:55:40.031Z,15.97
2023-01-22T01:58:10.583Z,15.77
2023-01-22T02:00:38.714Z,17.67
2023-01-22T02:03:07.209Z,18.40
2023-01-22T02:05:37.398Z,13.83
2023-01-22T02:08:04.592Z,15.23
2023-01-22T02:10:32.698Z,16.70
2023-01-22T02:13:04.322Z,15.30
2023-01-22T02:15:32.271Z,14.83
2023-01-22T02:18:00.623Z,13.87
2023-01-22T02:20:28.239Z,16.07
2023-01-22T02:22:56.247Z,16.40
2023-01-22T02:25:23.704Z,18.60
2023-01-22T02:27:51.746Z,14.20
2023-01-22T02:30:20.702Z,13.77
2023-01-22T02:32:48.774Z,15.70
2023-01-22T02:35:16.527Z,14.37
2023-01-22T02:37:44.057Z,13.57
2023-01-22T02:40:14.226Z,16.97
2023-01-22T02:42:42.119Z,13.73
2023-01-22T02:45:11.578Z,15.23
2023-01-22T02:47:39.674Z,13.27
2023-01-22T02:50:09.909Z,17.17
2023-01-22T02:52:37.942Z,16.10
2023-01-22T02:55:07.959Z,14.10
2023-01-22T02:57:35.902Z,18.50
2023-01-22T03:00:03.755Z,14.07
2023-01-22T03:02:31.964Z,14.13
2023-01-22T03:05:03.882Z,12.37
2023-01-22T03:07:42.395Z,15.03
2023-01-22T03:10:20.714Z,15.43
2023-01-22T03:13:07.105Z,13.97
2023-01-22T03:15:53.438Z,14.10
2023-01-22T03:18:42.452Z,14.23
2023-01-22T03:21:18.912Z,14.47
2023-01-22T03:24:15.605Z,18.13
2023-01-22T03:26:43.821Z,15.87
2023-01-22T03:29:15.081Z,15.60
2023-01-22T03:31:43.296Z,19.03
2023-01-22T03:34:11.274Z,15.57
2023-01-22T03:36:39.263Z,14.60
2023-01-22T03:39:06.754Z,14.60
2023-01-22T03:41:33.946Z,14.50
2023-01-22T03:44:03.607Z,13.40
2023-01-22T03:46:32.442Z,15.50
2023-01-22T03:49:00.510Z,15.70
2023-01-22T03:51:28.796Z,16.30
2023-01-22T03:53:55.822Z,15.93
2023-01-22T03:56:25.137Z,16.40
2023-01-22T03:58:52.908Z,17.33
2023-01-22T04:01:43.386Z,14.07
2023-01-22T04:04:11.473Z,14.77
2023-01-22T04:06:39.436Z,17.80
2023-01-22T04:09:07.593Z,19.03
2023-01-22T04:11:35.778Z,17.43
2023-01-22T04:14:03.933Z,17.53
2023-01-22T04:16:32.063Z,14.47
2023-01-22T04:18:59.585Z,18.83
2023-01-22T04:21:28.036Z,15.00
2023-01-22T04:23:56.779Z,15.50
2023-01-22T04:26:25.535Z,16.03
2023-01-22T04:28:53.259Z,17.97
2023-01-22T04:31:21.691Z,10.87
2023-01-22T04:33:49.303Z,13.83
2023-01-22T04:36:18.245Z,20.03
2023-01-22T04:38:46.332Z,13.90
2023-01-22T04:41:14.415Z,16.03
2023-01-22T04:43:42.416Z,15.33
2023-01-22T04:46:10.598Z,15.57
2023-01-22T04:48:41.980Z,13.73
2023-01-22T04:51:09.843Z,17.50
2023-01-22T04:53:37.599Z,16.43
2023-01-22T04:56:06.659Z,13.97
2023-01-22T04:58:34.979Z,12.47
2023-01-22T05:01:03.011Z,13.37
2023-01-22T05:03:30.590Z,10.90
2023-01-22T05:05:58.990Z,11.43
2023-01-22T05:08:27.059Z,12.17
2023-01-22T05:10:55.175Z,11.03
2023-01-22T05:13:23.070Z,15.27
2023-01-22T05:15:54.247Z,13.57
2023-01-22T05:18:22.306Z,10.60
2023-01-22T05:20:50.659Z,12.33
2023-01-22T05:23:18.723Z,10.93
2023-01-22T05:25:50.598Z,12.37
2023-01-22T05:28:18.335Z,10.47
2023-01-22T05:30:46.039Z,9.30
2023-01-22T05:33:14.954Z,10.10
2023-01-22T05:35:43.013Z,10.33
2023-01-22T05:38:10.912Z,9.80
2023-01-22T05:40:38.854Z,14.07
2023-01-22T05:43:06.373Z,11.40
2023-01-22T05:45:34.896Z,11.50
2023-01-22T05:48:02.891Z,8.30
2023-01-22T05:50:30.470Z,10.27
2023-01-22T05:52:58.893Z,12.47
2023-01-22T05:55:26.835Z,11.53
2023-01-22T05:57:54.639Z,10.30
2023-01-22T06:00:23.396Z,10.90
2023-01-22T06:02:55.391Z,11.03
2023-01-22T06:05:23.590Z,11.10
2023-01-22T06:07:51.686Z,10.47
2023-01-22T06:10:19.131Z,11.13
2023-01-22T06:12:47.383Z,9.47
2023-01-22T06:15:15.661Z,10.33
2023-01-22T06:17:44.004Z,8.63
2023-01-22T06:20:13.106Z,9.30
2023-01-22T06:22:40.758Z,6.50
2023-01-22T06:25:09.591Z,8.67
2023-01-22T06:27:43.345Z,9.53
2023-01-22T06:30:13.199Z,5.77
2023-01-22T06:32:40.893Z,8.83
2023-01-22T06:35:10.110Z,6.67
2023-01-22T06:37:38.570Z,5.67
2023-01-22T06:40:11.659Z,7.97
2023-01-22T06:42:39.477Z,7.17
2023-01-22T06:45:09.355Z,6.73
2023-01-22T06:47:36.962Z,7.03
2023-01-22T06:50:05.160Z,8.13
2023-01-22T06:52:33.221Z,8.20
2023-01-22T06:55:01.074Z,13.97
2023-01-22T06:57:29.383Z,5.30
2023-01-22T06:59:57.409Z,6.50
2023-01-22T07:02:25.860Z,6.90
2023-01-22T07:04:54.054Z,5.40
2023-01-22T07:07:22.128Z,7.53
2023-01-22T07:09:50.217Z,5.57
2023-01-22T07:12:18.200Z,6.47
2023-01-22T07:14:46.453Z,5.00
2023-01-22T07:17:14.233Z,9.03
2023-01-22T07:19:42.309Z,13.07
2023-01-22T07:22:09.777Z,11.33
2023-01-22T07:24:37.843Z,5.90
2023-01-22T07:27:06.057Z,7.00
2023-01-22T07:29:34.741Z,5.53
2023-01-22T07:32:02.452Z,6.83
2023-01-22T07:34:30.389Z,3.33
2023-01-22T07:36:58.339Z,3.10
2023-01-22T07:39:31.824Z,3.07
2023-01-22T07:42:01.315Z,3.53
2023-01-22T07:44:29.636Z,2.23
2023-01-22T07:46:57.697Z,3.43
2023-01-22T07:49:25.778Z,3.00
2023-01-22T07:51:54.045Z,2.97
2023-01-22T07:54:21.946Z,3.23
2023-01-22T07:56:50.091Z,4.33
2023-01-22T07:59:18.251Z,3.10
2023-01-22T08:01:45.954Z,3.03
2023-01-22T08:04:13.566Z,2.47
2023-01-22T08:06:41.597Z,2.40
2023-01-22T08:09:09.738Z,2.80
2023-01-22T08:11:37.365Z,2.17
2023-01-22T08:14:05.501Z,3.23
2023-01-22T08:16:33.171Z,2.43
2023-01-22T08:19:00.775Z,3.73
2023-01-22T08:21:28.825Z,3.07
2023-01-22T08:23:56.485Z,4.47
2023-01-22T08:26:24.421Z,4.03
2023-01-22T08:28:52.376Z,2.37
2023-01-22T08:31:27.799Z,2.87
2023-01-22T08:33:56.634Z,3.38
2023-01-22T08:36:24.531Z,2.93
2023-01-22T08:38:52.142Z,2.87
2023-01-22T08:41:20.223Z,4.03
2023-01-22T08:43:48.032Z,3.23
2023-01-22T08:46:15.674Z,2.73
2023-01-22T08:48:44.375Z,2.70
2023-01-22T08:51:15.644Z,4.30
2023-01-22T08:53:43.770Z,2.57
2023-01-22T08:56:11.828Z,3.40
2023-01-22T08:58:39.811Z,2.57
2023-01-22T09:01:07.806Z,3.27
2023-01-22T09:03:35.387Z,2.43
2023-01-22T09:06:03.396Z,6.13
2023-01-22T09:08:31.120Z,2.87
2023-01-22T09:10:59.492Z,1.73
2023-01-22T09:13:28.073Z,2.13
2023-01-22T09:15:59.451Z,2.83
2023-01-22T09:18:27.615Z,3.47
2023-01-22T09:20:55.837Z,5.70
2023-01-22T09:23:23.364Z,1.53
2023-01-22T09:25:51.434Z,1.70
2023-01-22T09:28:19.403Z,1.33
2023-01-22T09:30:47.397Z,2.47
2023-01-22T09:33:15.278Z,1.43
2023-01-22T09:35:42.784Z,1.70
2023-01-22T09:38:14.528Z,0.90
2023-01-22T09:40:48.474Z,2.13
2023-01-22T09:43:30.336Z,3.10
2023-01-22T09:45:59.009Z,3.23
2023-01-22T09:48:31.499Z,9.20
2023-01-22T09:50:59.474Z,5.83
2023-01-22T09:53:27.520Z,18.57
2023-01-22T09:55:54.136Z,26.33
2023-01-22T09:58:22.159Z,14.37
2023-01-22T10:01:01.338Z,4.77
2023-01-22T10:03:39.524Z,5.37
2023-01-22T10:06:12.943Z,4.83
2023-01-22T10:09:01.544Z,4.00
2023-01-22T10:11:29.101Z,3.20
2023-01-22T10:14:00.017Z,4.33
2023-01-22T10:16:27.646Z,3.50
2023-01-22T10:19:04.400Z,5.27
2023-01-22T10:21:43.383Z,3.13
2023-01-22T10:24:11.481Z,3.43
2023-01-22T10:26:49.008Z,7.57
2023-01-22T10:29:33.066Z,8.53
2023-01-22T10:32:17.210Z,5.07
2023-01-22T10:35:00.287Z,9.00
2023-01-22T10:37:28.091Z,3.97
2023-01-22T10:40:00.747Z,3.77
2023-01-22T10:42:28.785Z,4.60
2023-01-22T10:45:12.322Z,3.13
2023-01-22T10:47:43.398Z,3.80
2023-01-22T10:50:32.825Z,5.63
2023-01-22T10:52:59.986Z,8.03
2023-01-22T10:55:32.086Z,13.93
2023-01-22T10:58:06.051Z,15.90
2023-01-22T11:00:46.627Z,11.37
2023-01-22T11:03:19.955Z,12.37
2023-01-22T11:05:48.246Z,14.50
2023-01-22T11:08:17.085Z,10.43
2023-01-22T11:11:02.594Z,10.00
2023-01-22T11:13:35.394Z,11.63
2023-01-22T11:16:11.134Z,6.13
2023-01-22T11:18:55.619Z,7.70
2023-01-22T11:21:38.101Z,7.20
2023-01-22T11:24:05.562Z,8.13
2023-01-22T11:26:50.884Z,10.20
2023-01-22T11:29:32.380Z,8.47
2023-01-22T11:32:20.547Z,4.57
2023-01-22T11:34:47.088Z,3.03
2023-01-22T11:37:18.232Z,2.20
2023-01-22T11:40:14.091Z,2.50
2023-01-22T11:42:50.360Z,5.73
2023-01-22T11:45:23.106Z,4.50
2023-01-22T11:48:17.179Z,4.87
2023-01-22T11:50:48.221Z,3.97
2023-01-22T11:53:39.142Z,4.40
2023-01-22T11:56:23.505Z,3.23
2023-01-22T11:59:12.361Z,3.17
2023-01-22T12:02:02.811Z,4.73
2023-01-22T12:05:03.049Z,17.30
2023-01-22T12:07:35.448Z,9.37
2023-01-22T12:10:30.045Z,3.20
2023-01-22T12:13:35.455Z,2.43
2023-01-22T12:16:20.477Z,3.93
2023-01-22T12:19:12.620Z,1.67
2023-01-22T12:22:03.495Z,1.37
2023-01-22T12:25:18.737Z,2.77
2023-01-22T12:28:14.790Z,1.73
2023-01-22T12:31:03.074Z,1.83
2023-01-22T12:33:32.096Z,4.53
2023-01-22T12:36:01.025Z,4.10
2023-01-22T12:38:42.328Z,1.53
2023-01-22T12:41:30.008Z,1.90
2023-01-22T12:44:06.932Z,1.80
2023-01-22T12:46:40.372Z,3.70
2023-01-22T12:49:10.141Z,1.93
2023-01-22T12:51:50.899Z,2.40
2023-01-22T12:54:20.532Z,1.90
2023-01-22T12:56:48.277Z,3.40
2023-01-22T12:59:36.792Z,8.80
2023-01-22T13:02:24.533Z,8.10
2023-01-22T13:04:57.103Z,3.27
2023-01-22T13:07:31.694Z,2.87
2023-01-22T13:10:32.162Z,2.27
2023-01-22T13:13:30.144Z,2.83
2023-01-22T13:16:03.789Z,3.27
2023-01-22T13:18:32.447Z,2.43
2023-01-22T13:21:08.758Z,2.97
2023-01-22T13:23:44.044Z,3.33
2023-01-22T13:26:23.529Z,2.67
2023-01-22T13:29:37.852Z,2.10
2023-01-22T13:32:22.460Z,3.77
2023-01-22T13:34:53.590Z,3.77
2023-01-22T13:38:02.562Z,4.67
2023-01-22T13:40:37.105Z,3.63
2023-01-22T13:43:15.689Z,3.37
2023-01-22T13:45:44.090Z,3.93
2023-01-22T13:48:18.346Z,2.90
2023-01-22T13:51:18.504Z,3.60
2023-01-22T13:53:53.046Z,2.83
2023-01-22T13:56:22.367Z,2.70
2023-01-22T13:58:50.591Z,3.03
2023-01-22T14:01:29.139Z,3.10
2023-01-22T14:04:38.134Z,2.90
2023-01-22T14:07:05.688Z,2.70
2023-01-22T14:09:37.234Z,2.13
2023-01-22T14:12:18.090Z,2.17
2023-01-22T14:14:45.731Z,2.67
2023-01-22T14:17:22.105Z,2.37
2023-01-22T14:19:49.834Z,1.70
2023-01-22T14:22:17.591Z,1.70
2023-01-22T14:24:45.159Z,2.00
2023-01-22T14:27:12.869Z,2.60
2023-01-22T14:29:39.553Z,2.87
2023-01-22T14:32:08.043Z,4.23
2023-01-22T14:34:36.055Z,2.27
2023-01-22T14:37:04.047Z,3.57
2023-01-22T14:39:38.382Z,2.90
2023-01-22T14:42:06.571Z,2.73
2023-01-22T14:44:34.096Z,4.20
2023-01-22T14:47:02.083Z,2.67
2023-01-22T14:49:29.879Z,3.40
2023-01-22T14:51:57.879Z,2.63
2023-01-22T14:54:26.165Z,3.20
2023-01-22T14:56:56.179Z,3.97
2023-01-22T14:59:24.140Z,2.23
2023-01-22T15:01:52.281Z,3.57
2023-01-22T15:04:20.010Z,2.67
2023-01-22T15:06:50.908Z,2.93
2023-01-22T15:09:19.076Z,3.87
2023-01-22T15:11:47.147Z,2.73
2023-01-22T15:14:15.579Z,15.53
2023-01-22T15:16:43.194Z,10.97
2023-01-22T15:19:11.195Z,8.43
2023-01-22T15:21:38.804Z,6.83
2023-01-22T15:24:10.790Z,3.70
2023-01-22T15:26:38.894Z,6.00
2023-01-22T15:29:07.763Z,2.63
2023-01-22T15:31:35.906Z,4.27
2023-01-22T15:34:04.167Z,6.93
2023-01-22T15:36:35.901Z,17.83
2023-01-22T15:41:59.865Z,7.33
2023-01-22T15:44:28.013Z,3.17
2023-01-22T15:46:58.889Z,2.97
2023-01-22T15:49:27.079Z,3.97
2023-01-22T15:51:54.576Z,3.87
2023-01-22T15:54:24.901Z,6.43
2023-01-22T15:56:53.317Z,6.10
2023-01-22T15:59:27.591Z,8.67
2023-01-22T16:01:58.258Z,5.83
2023-01-22T16:04:46.712Z,7.60
2023-01-22T16:07:23.131Z,4.70
2023-01-22T16:09:54.020Z,9.02
2023-01-22T16:12:22.551Z,9.20
2023-01-22T16:14:51.025Z,12.13
2023-01-22T16:17:19.258Z,12.80
2023-01-22T16:19:50.358Z,11.43
2023-01-22T16:22:18.446Z,10.43
2023-01-22T16:24:46.063Z,8.90
2023-01-22T16:27:15.288Z,13.67
2023-01-22T16:29:43.038Z,11.43
2023-01-22T16:32:11.058Z,6.33
2023-01-22T16:34:38.497Z,5.53
2023-01-22T16:37:06.641Z,9.97
2023-01-22T16:39:36.013Z,6.37
2023-01-22T16:42:03.480Z,3.83
2023-01-22T16:44:33.584Z,4.10
2023-01-22T16:47:01.886Z,4.70
2023-01-22T16:49:30.539Z,6.20
2023-01-22T16:52:00.306Z,7.23
2023-01-22T16:54:34.903Z,5.67
2023-01-22T16:57:04.501Z,6.13
2023-01-22T16:59:33.233Z,5.93
2023-01-22T17:02:05.123Z,5.37
2023-01-22T17:04:32.348Z,3.77
2023-01-22T17:07:00.107Z,4.50
2023-01-22T17:09:35.933Z,3.93
2023-01-22T17:12:05.764Z,5.23
2023-01-22T17:14:35.886Z,7.50
2023-01-22T17:17:03.156Z,4.47
2023-01-22T17:19:31.383Z,4.20
2023-01-22T17:21:59.416Z,3.10
2023-01-22T17:24:30.285Z,3.27
2023-01-22T17:27:02.662Z,4.43
2023-01-22T17:29:35.048Z,5.70
2023-01-22T17:32:07.663Z,3.83
2023-01-22T17:34:37.440Z,3.70
2023-01-22T17:37:09.716Z,3.60
2023-01-22T17:39:38.454Z,5.30
2023-01-22T17:42:06.303Z,5.00
2023-01-22T17:44:34.922Z,4.73
2023-01-22T17:47:03.548Z,5.97
2023-01-22T17:49:32.804Z,4.13
2023-01-22T17:52:00.383Z,6.43
2023-01-22T17:54:28.313Z,5.20
2023-01-22T17:56:55.935Z,6.13
2023-01-22T17:59:23.652Z,3.63
2023-01-22T18:01:51.527Z,3.60
2023-01-22T18:04:19.326Z,4.33
2023-01-22T18:06:47.228Z,4.93
2023-01-22T18:09:14.673Z,5.00
2023-01-22T18:11:42.594Z,4.30
2023-01-22T18:14:15.845Z,6.97
2023-01-22T18:16:43.843Z,6.97
2023-01-22T18:19:11.905Z,18.97
2023-01-22T18:21:38.896Z,17.90
2023-01-22T18:24:08.999Z,13.60
2023-01-22T18:26:37.125Z,12.43
2023-01-22T18:29:05.025Z,9.80
2023-01-22T18:31:32.865Z,7.70
2023-01-22T18:34:02.499Z,9.20
2023-01-22T18:36:31.718Z,6.23
2023-01-22T18:39:31.620Z,7.07
2023-01-22T18:41:59.819Z,6.33
2023-01-22T18:44:29.189Z,6.87
2023-01-22T18:46:59.383Z,10.43
2023-01-22T18:49:28.249Z,16.63
2023-01-22T18:51:59.293Z,18.23
2023-01-22T18:54:26.967Z,16.77
2023-01-22T18:56:54.645Z,15.97
2023-01-22T18:59:22.661Z,13.70
2023-01-22T19:01:51.815Z,12.40
2023-01-22T19:04:21.960Z,14.03
2023-01-22T19:06:53.559Z,14.83
2023-01-22T19:09:21.464Z,16.30
2023-01-22T19:11:49.038Z,14.17
2023-01-22T19:14:17.530Z,13.10
2023-01-22T19:16:48.413Z,10.37
2023-01-22T19:19:16.304Z,9.37
2023-01-22T19:21:47.385Z,10.67
2023-01-22T19:24:17.625Z,13.57
2023-01-22T19:26:46.856Z,11.30
2023-01-22T19:29:17.434Z,7.37
2023-01-22T19:31:46.755Z,5.97
2023-01-22T19:34:18.653Z,7.40
2023-01-22T19:36:46.273Z,6.10
2023-01-22T19:39:13.282Z,6.07
2023-01-22T19:41:41.902Z,5.00
2023-01-22T19:44:09.591Z,7.23
2023-01-22T19:46:38.076Z,7.67
2023-01-22T19:49:06.344Z,7.10
2023-01-22T19:51:34.000Z,8.33
2023-01-22T19:54:01.767Z,11.37
2023-01-22T19:56:31.705Z,10.00
2023-01-22T19:59:30.802Z,9.27
2023-01-22T20:01:58.763Z,10.13
2023-01-22T20:04:29.078Z,6.57
2023-01-22T20:06:57.417Z,6.50
2023-01-22T20:09:25.043Z,6.50
2023-01-22T20:11:53.819Z,5.73
2023-01-22T20:14:25.557Z,6.97
2023-01-22T20:16:53.086Z,7.40
2023-01-22T20:19:21.242Z,6.47
2023-01-22T20:21:48.459Z,6.80
2023-01-22T20:24:16.679Z,7.40
2023-01-22T20:26:44.790Z,7.37
2023-01-22T20:29:16.148Z,7.97
2023-01-22T20:31:44.471Z,6.93
2023-01-22T20:34:15.297Z,9.00
2023-01-22T20:36:42.807Z,7.90
2023-01-22T20:39:10.320Z,8.87
2023-01-22T20:41:37.957Z,9.23
2023-01-22T20:44:06.571Z,8.67
2023-01-22T20:46:36.115Z,9.00
2023-01-22T20:49:04.294Z,6.90
2023-01-22T20:51:33.568Z,8.07
2023-01-22T20:54:01.834Z,6.07
2023-01-22T20:56:31.658Z,6.33
2023-01-22T20:59:04.707Z,5.20
2023-01-22T21:01:32.516Z,6.97
2023-01-22T21:03:59.920Z,7.80
2023-01-22T21:06:28.822Z,12.27
2023-01-22T21:08:57.116Z,8.67
2023-01-22T21:11:24.464Z,7.37
2023-01-22T21:13:52.660Z,8.17
2023-01-22T21:16:29.756Z,7.30
2023-01-22T21:23:53.485Z,4.57
2023-01-22T21:26:24.664Z,6.70
2023-01-22T21:28:54.826Z,6.47
2023-01-22T21:31:22.028Z,9.87
2023-01-22T21:33:48.976Z,10.60
2023-01-22T21:36:18.507Z,8.60
2023-01-22T21:38:49.359Z,7.27
2023-01-22T21:41:17.646Z,7.73
2023-01-22T21:44:06.988Z,5.63
2023-01-22T21:46:36.047Z,7.47
2023-01-22T21:49:17.226Z,8.77
2023-01-22T21:51:53.073Z,8.67
2023-01-22T21:54:24.900Z,8.23
2023-01-22T21:56:52.627Z,9.27
2023-01-22T21:59:21.082Z,7.30
2023-01-22T22:01:50.413Z,5.97
2023-01-22T22:04:18.916Z,6.30
2023-01-22T22:06:47.059Z,6.73
2023-01-22T22:09:17.074Z,5.63
2023-01-22T22:11:44.816Z,6.40
2023-01-22T22:14:13.640Z,7.00
2023-01-22T22:16:41.489Z,6.23
2023-01-22T22:19:09.156Z,4.83
2023-01-22T22:21:37.277Z,5.57
2023-01-22T22:24:06.783Z,4.87
2023-01-22T22:26:34.440Z,6.10
2023-01-22T22:29:02.475Z,5.00
2023-01-22T22:31:30.731Z,5.70
2023-01-22T22:33:58.539Z,5.30
2023-01-22T22:36:27.882Z,5.70
2023-01-22T22:38:55.541Z,6.40
2023-01-22T22:41:28.142Z,5.37
2023-01-22T22:43:56.649Z,5.00
2023-01-22T22:46:29.014Z,7.33
2023-01-22T22:48:57.524Z,9.40
2023-01-22T22:51:26.919Z,6.97
2023-01-22T22:53:58.981Z,9.67
2023-01-22T22:56:27.398Z,6.67
2023-01-22T22:58:55.623Z,8.50
2023-01-22T23:01:24.296Z,6.43
2023-01-22T23:03:52.648Z,8.57
2023-01-22T23:06:21.746Z,12.60
2023-01-22T23:08:52.435Z,8.17
2023-01-22T23:11:23.597Z,7.37
2023-01-22T23:13:54.296Z,6.73
2023-01-22T23:16:22.854Z,6.87
2023-01-22T23:18:52.432Z,8.00
2023-01-22T23:21:24.227Z,7.70
2023-01-22T23:23:53.078Z,7.27
2023-01-22T23:26:26.808Z,7.57
2023-01-22T23:29:24.227Z,7.53
2023-01-22T23:31:51.744Z,9.40
2023-01-22T23:34:20.648Z,7.37
2023-01-22T23:36:47.659Z,7.37
2023-01-22T23:39:16.743Z,8.47
2023-01-22T23:41:44.345Z,11.00
2023-01-22T23:44:12.007Z,8.20
2023-01-22T23:46:39.855Z,9.27
2023-01-22T23:49:07.743Z,9.23
2023-01-22T23:51:38.325Z,7.50
2023-01-22T23:54:06.641Z,8.03
2023-01-22T23:56:34.188Z,12.57
2023-01-22T23:59:02.274Z,9.40
